sensor_id;sensor_type;location;lat;lon;timestamp;P1;durP1;ratioP1;P2;durP2;ratioP2
37527;SDS011;23372;52.050;4.810;2023-05-07T00:00:25;30.90;;;20.25;;
37527;SDS011;23372;52.050;4.810;2023-05-07T00:02:50;26.42;;;19.60;;
37527;SDS011;23372;52.050;4.810;2023-05-07T00:05:16;29.42;;;20.95;;
37527;SDS011;23372;52.050;4.810;2023-05-07T00:07:42;28.95;;;21.10;;
37527;SDS011;23372;52.050;4.810;2023-05-07T00:10:08;28.55;;;20.00;;
37527;SDS011;23372;52.050;4.810;2023-05-07T00:12:35;28.48;;;20.33;;
37527;SDS011;23372;52.050;4.810;2023-05-07T00:15:04;29.92;;;21.35;;
37527;SDS011;23372;52.050;4.810;2023-05-07T00:17:31;27.27;;;19.75;;
37527;SDS011;23372;52.050;4.810;2023-05-07T00:19:58;26.17;;;19.60;;
37527;SDS011;23372;52.050;4.810;2023-05-07T00:22:23;28.15;;;19.23;;
37527;SDS011;23372;52.050;4.810;2023-05-07T00:24:49;32.25;;;20.77;;
37527;SDS011;23372;52.050;4.810;2023-05-07T00:27:14;33.08;;;22.00;;
37527;SDS011;23372;52.050;4.810;2023-05-07T00:29:40;35.15;;;21.95;;
37527;SDS011;23372;52.050;4.810;2023-05-07T00:32:05;30.33;;;21.77;;
37527;SDS011;23372;52.050;4.810;2023-05-07T00:34:31;27.77;;;21.27;;
37527;SDS011;23372;52.050;4.810;2023-05-07T00:36:56;29.98;;;22.08;;
37527;SDS011;23372;52.050;4.810;2023-05-07T00:39:22;30.88;;;21.02;;
37527;SDS011;23372;52.050;4.810;2023-05-07T00:41:48;29.73;;;21.67;;
37527;SDS011;23372;52.050;4.810;2023-05-07T00:44:13;30.63;;;20.52;;
37527;SDS011;23372;52.050;4.810;2023-05-07T00:46:39;28.77;;;21.15;;
37527;SDS011;23372;52.050;4.810;2023-05-07T00:49:05;30.95;;;22.60;;
37527;SDS011;23372;52.050;4.810;2023-05-07T00:51:31;32.88;;;22.63;;
37527;SDS011;23372;52.050;4.810;2023-05-07T00:53:58;30.48;;;22.10;;
37527;SDS011;23372;52.050;4.810;2023-05-07T00:56:25;31.98;;;23.65;;
37527;SDS011;23372;52.050;4.810;2023-05-07T00:58:51;35.92;;;25.33;;
37527;SDS011;23372;52.050;4.810;2023-05-07T01:01:17;43.55;;;28.67;;
37527;SDS011;23372;52.050;4.810;2023-05-07T01:03:42;45.20;;;28.88;;
37527;SDS011;23372;52.050;4.810;2023-05-07T01:06:08;44.30;;;30.13;;
37527;SDS011;23372;52.050;4.810;2023-05-07T01:08:37;43.70;;;29.63;;
37527;SDS011;23372;52.050;4.810;2023-05-07T01:11:07;43.20;;;32.15;;
37527;SDS011;23372;52.050;4.810;2023-05-07T01:13:33;48.55;;;32.28;;
37527;SDS011;23372;52.050;4.810;2023-05-07T01:16:00;49.00;;;32.78;;
37527;SDS011;23372;52.050;4.810;2023-05-07T01:18:25;48.33;;;33.15;;
37527;SDS011;23372;52.050;4.810;2023-05-07T01:20:52;47.40;;;33.63;;
37527;SDS011;23372;52.050;4.810;2023-05-07T01:23:18;45.05;;;32.83;;
37527;SDS011;23372;52.050;4.810;2023-05-07T01:25:50;46.53;;;32.53;;
37527;SDS011;23372;52.050;4.810;2023-05-07T01:28:19;43.83;;;32.53;;
37527;SDS011;23372;52.050;4.810;2023-05-07T01:30:46;44.40;;;32.63;;
37527;SDS011;23372;52.050;4.810;2023-05-07T01:33:18;45.53;;;32.10;;
37527;SDS011;23372;52.050;4.810;2023-05-07T01:35:47;42.40;;;31.70;;
37527;SDS011;23372;52.050;4.810;2023-05-07T01:38:15;41.65;;;30.05;;
37527;SDS011;23372;52.050;4.810;2023-05-07T01:40:41;41.92;;;30.48;;
37527;SDS011;23372;52.050;4.810;2023-05-07T01:43:07;38.70;;;29.35;;
37527;SDS011;23372;52.050;4.810;2023-05-07T01:45:34;36.80;;;27.45;;
37527;SDS011;23372;52.050;4.810;2023-05-07T01:48:01;36.15;;;28.95;;
37527;SDS011;23372;52.050;4.810;2023-05-07T01:50:27;37.45;;;27.02;;
37527;SDS011;23372;52.050;4.810;2023-05-07T01:52:54;35.10;;;25.80;;
37527;SDS011;23372;52.050;4.810;2023-05-07T01:55:20;35.85;;;26.90;;
37527;SDS011;23372;52.050;4.810;2023-05-07T01:57:46;37.13;;;27.05;;
37527;SDS011;23372;52.050;4.810;2023-05-07T02:00:12;35.00;;;26.38;;
37527;SDS011;23372;52.050;4.810;2023-05-07T02:02:37;34.58;;;25.73;;
37527;SDS011;23372;52.050;4.810;2023-05-07T02:05:03;32.08;;;25.15;;
37527;SDS011;23372;52.050;4.810;2023-05-07T02:07:29;32.28;;;25.02;;
37527;SDS011;23372;52.050;4.810;2023-05-07T02:09:55;31.00;;;25.40;;
37527;SDS011;23372;52.050;4.810;2023-05-07T02:12:21;30.98;;;25.60;;
37527;SDS011;23372;52.050;4.810;2023-05-07T02:14:47;28.98;;;23.80;;
37527;SDS011;23372;52.050;4.810;2023-05-07T02:17:13;30.75;;;23.42;;
37527;SDS011;23372;52.050;4.810;2023-05-07T02:19:38;31.25;;;23.40;;
37527;SDS011;23372;52.050;4.810;2023-05-07T02:22:04;34.33;;;24.08;;
37527;SDS011;23372;52.050;4.810;2023-05-07T02:24:29;29.20;;;24.75;;
37527;SDS011;23372;52.050;4.810;2023-05-07T02:26:55;30.08;;;24.65;;
37527;SDS011;23372;52.050;4.810;2023-05-07T02:29:21;30.27;;;22.85;;
37527;SDS011;23372;52.050;4.810;2023-05-07T02:31:46;35.50;;;25.58;;
37527;SDS011;23372;52.050;4.810;2023-05-07T02:34:15;38.22;;;26.63;;
37527;SDS011;23372;52.050;4.810;2023-05-07T02:36:41;30.55;;;24.75;;
37527;SDS011;23372;52.050;4.810;2023-05-07T02:39:07;31.10;;;24.73;;
37527;SDS011;23372;52.050;4.810;2023-05-07T02:41:33;30.42;;;24.15;;
37527;SDS011;23372;52.050;4.810;2023-05-07T02:43:58;32.08;;;24.65;;
37527;SDS011;23372;52.050;4.810;2023-05-07T02:46:24;31.75;;;24.92;;
37527;SDS011;23372;52.050;4.810;2023-05-07T02:48:49;27.92;;;23.48;;
37527;SDS011;23372;52.050;4.810;2023-05-07T02:51:16;28.38;;;22.75;;
37527;SDS011;23372;52.050;4.810;2023-05-07T02:53:45;30.45;;;23.10;;
37527;SDS011;23372;52.050;4.810;2023-05-07T02:56:11;26.88;;;21.40;;
37527;SDS011;23372;52.050;4.810;2023-05-07T02:58:36;28.25;;;22.52;;
37527;SDS011;23372;52.050;4.810;2023-05-07T03:01:04;27.05;;;22.77;;
37527;SDS011;23372;52.050;4.810;2023-05-07T03:03:30;27.00;;;22.48;;
37527;SDS011;23372;52.050;4.810;2023-05-07T03:05:56;29.35;;;21.33;;
37527;SDS011;23372;52.050;4.810;2023-05-07T03:08:21;28.02;;;22.33;;
37527;SDS011;23372;52.050;4.810;2023-05-07T03:10:47;24.95;;;20.60;;
37527;SDS011;23372;52.050;4.810;2023-05-07T03:13:13;24.17;;;21.27;;
37527;SDS011;23372;52.050;4.810;2023-05-07T03:15:39;27.95;;;20.77;;
37527;SDS011;23372;52.050;4.810;2023-05-07T03:18:04;24.27;;;20.33;;
37527;SDS011;23372;52.050;4.810;2023-05-07T03:20:30;27.00;;;20.95;;
37527;SDS011;23372;52.050;4.810;2023-05-07T03:22:56;26.33;;;20.23;;
37527;SDS011;23372;52.050;4.810;2023-05-07T03:25:22;23.80;;;19.65;;
37527;SDS011;23372;52.050;4.810;2023-05-07T03:27:48;25.75;;;20.10;;
37527;SDS011;23372;52.050;4.810;2023-05-07T03:30:13;30.90;;;20.77;;
37527;SDS011;23372;52.050;4.810;2023-05-07T03:32:39;22.48;;;19.40;;
37527;SDS011;23372;52.050;4.810;2023-05-07T03:35:05;24.15;;;20.17;;
37527;SDS011;23372;52.050;4.810;2023-05-07T03:37:31;27.70;;;20.40;;
37527;SDS011;23372;52.050;4.810;2023-05-07T03:39:56;23.50;;;19.42;;
37527;SDS011;23372;52.050;4.810;2023-05-07T03:42:22;22.27;;;18.70;;
37527;SDS011;23372;52.050;4.810;2023-05-07T03:44:48;25.83;;;20.00;;
37527;SDS011;23372;52.050;4.810;2023-05-07T03:47:13;23.83;;;19.02;;
37527;SDS011;23372;52.050;4.810;2023-05-07T03:49:39;22.02;;;19.63;;
37527;SDS011;23372;52.050;4.810;2023-05-07T03:52:05;27.25;;;19.63;;
37527;SDS011;23372;52.050;4.810;2023-05-07T03:54:31;24.60;;;19.50;;
37527;SDS011;23372;52.050;4.810;2023-05-07T03:56:56;23.20;;;19.52;;
37527;SDS011;23372;52.050;4.810;2023-05-07T03:59:22;25.23;;;18.27;;
37527;SDS011;23372;52.050;4.810;2023-05-07T04:01:48;24.13;;;19.65;;
37527;SDS011;23372;52.050;4.810;2023-05-07T04:04:14;24.10;;;18.92;;
37527;SDS011;23372;52.050;4.810;2023-05-07T04:06:40;23.60;;;19.15;;
37527;SDS011;23372;52.050;4.810;2023-05-07T04:09:06;22.33;;;18.58;;
37527;SDS011;23372;52.050;4.810;2023-05-07T04:11:31;21.83;;;17.80;;
37527;SDS011;23372;52.050;4.810;2023-05-07T04:13:57;23.67;;;18.77;;
37527;SDS011;23372;52.050;4.810;2023-05-07T04:16:23;24.73;;;19.10;;
37527;SDS011;23372;52.050;4.810;2023-05-07T04:18:48;21.92;;;18.88;;
37527;SDS011;23372;52.050;4.810;2023-05-07T04:21:18;23.30;;;18.65;;
37527;SDS011;23372;52.050;4.810;2023-05-07T04:23:48;24.00;;;18.88;;
37527;SDS011;23372;52.050;4.810;2023-05-07T04:26:14;23.48;;;18.77;;
37527;SDS011;23372;52.050;4.810;2023-05-07T04:28:40;23.58;;;18.35;;
37527;SDS011;23372;52.050;4.810;2023-05-07T04:31:05;21.90;;;17.83;;
37527;SDS011;23372;52.050;4.810;2023-05-07T04:33:31;24.70;;;19.33;;
37527;SDS011;23372;52.050;4.810;2023-05-07T04:35:57;29.50;;;19.23;;
37527;SDS011;23372;52.050;4.810;2023-05-07T04:38:28;26.27;;;19.20;;
37527;SDS011;23372;52.050;4.810;2023-05-07T04:40:55;30.98;;;19.52;;
37527;SDS011;23372;52.050;4.810;2023-05-07T04:43:22;25.20;;;19.42;;
37527;SDS011;23372;52.050;4.810;2023-05-07T04:45:47;23.25;;;19.80;;
37527;SDS011;23372;52.050;4.810;2023-05-07T04:48:15;24.92;;;20.10;;
37527;SDS011;23372;52.050;4.810;2023-05-07T04:50:41;25.60;;;20.17;;
37527;SDS011;23372;52.050;4.810;2023-05-07T04:53:06;26.38;;;21.05;;
37527;SDS011;23372;52.050;4.810;2023-05-07T04:55:32;29.25;;;22.33;;
37527;SDS011;23372;52.050;4.810;2023-05-07T04:57:57;28.48;;;21.90;;
37527;SDS011;23372;52.050;4.810;2023-05-07T05:00:23;29.17;;;22.23;;
37527;SDS011;23372;52.050;4.810;2023-05-07T05:02:50;25.55;;;20.67;;
37527;SDS011;23372;52.050;4.810;2023-05-07T05:05:15;28.73;;;21.60;;
37527;SDS011;23372;52.050;4.810;2023-05-07T05:07:41;28.27;;;22.58;;
37527;SDS011;23372;52.050;4.810;2023-05-07T05:10:06;31.05;;;22.77;;
37527;SDS011;23372;52.050;4.810;2023-05-07T05:12:32;30.40;;;23.05;;
37527;SDS011;23372;52.050;4.810;2023-05-07T05:14:58;28.35;;;22.08;;
37527;SDS011;23372;52.050;4.810;2023-05-07T05:17:23;29.48;;;24.00;;
37527;SDS011;23372;52.050;4.810;2023-05-07T05:19:49;31.65;;;24.05;;
37527;SDS011;23372;52.050;4.810;2023-05-07T05:22:14;33.28;;;23.88;;
37527;SDS011;23372;52.050;4.810;2023-05-07T05:24:40;33.28;;;23.85;;
37527;SDS011;23372;52.050;4.810;2023-05-07T05:27:05;31.50;;;24.55;;
37527;SDS011;23372;52.050;4.810;2023-05-07T05:29:31;33.88;;;25.58;;
37527;SDS011;23372;52.050;4.810;2023-05-07T05:31:57;34.97;;;25.48;;
37527;SDS011;23372;52.050;4.810;2023-05-07T05:34:22;32.20;;;24.73;;
37527;SDS011;23372;52.050;4.810;2023-05-07T05:36:48;31.38;;;25.35;;
37527;SDS011;23372;52.050;4.810;2023-05-07T05:39:14;32.15;;;25.30;;
37527;SDS011;23372;52.050;4.810;2023-05-07T05:41:39;35.90;;;25.85;;
37527;SDS011;23372;52.050;4.810;2023-05-07T05:44:05;34.08;;;25.75;;
37527;SDS011;23372;52.050;4.810;2023-05-07T05:46:31;33.13;;;26.70;;
37527;SDS011;23372;52.050;4.810;2023-05-07T05:48:56;35.92;;;26.63;;
37527;SDS011;23372;52.050;4.810;2023-05-07T05:51:22;35.20;;;26.02;;
37527;SDS011;23372;52.050;4.810;2023-05-07T05:53:48;34.58;;;26.25;;
37527;SDS011;23372;52.050;4.810;2023-05-07T05:56:13;37.92;;;28.17;;
37527;SDS011;23372;52.050;4.810;2023-05-07T05:58:40;30.33;;;25.52;;
37527;SDS011;23372;52.050;4.810;2023-05-07T06:01:06;34.60;;;26.45;;
37527;SDS011;23372;52.050;4.810;2023-05-07T06:03:31;32.13;;;25.65;;
37527;SDS011;23372;52.050;4.810;2023-05-07T06:05:57;37.72;;;27.20;;
37527;SDS011;23372;52.050;4.810;2023-05-07T06:08:23;33.83;;;26.83;;
37527;SDS011;23372;52.050;4.810;2023-05-07T06:10:48;35.05;;;26.67;;
37527;SDS011;23372;52.050;4.810;2023-05-07T06:13:14;32.90;;;25.98;;
37527;SDS011;23372;52.050;4.810;2023-05-07T06:15:40;37.72;;;27.48;;
37527;SDS011;23372;52.050;4.810;2023-05-07T06:18:05;33.78;;;27.05;;
37527;SDS011;23372;52.050;4.810;2023-05-07T06:20:31;34.42;;;27.10;;
37527;SDS011;23372;52.050;4.810;2023-05-07T06:22:56;32.17;;;25.23;;
37527;SDS011;23372;52.050;4.810;2023-05-07T06:25:22;37.35;;;27.90;;
37527;SDS011;23372;52.050;4.810;2023-05-07T06:27:47;35.28;;;27.33;;
37527;SDS011;23372;52.050;4.810;2023-05-07T06:30:13;34.88;;;26.45;;
37527;SDS011;23372;52.050;4.810;2023-05-07T06:32:39;33.30;;;27.25;;
37527;SDS011;23372;52.050;4.810;2023-05-07T06:35:05;32.53;;;26.67;;
37527;SDS011;23372;52.050;4.810;2023-05-07T06:37:31;34.00;;;26.98;;
37527;SDS011;23372;52.050;4.810;2023-05-07T06:39:57;36.33;;;27.15;;
37527;SDS011;23372;52.050;4.810;2023-05-07T06:42:22;33.83;;;25.20;;
37527;SDS011;23372;52.050;4.810;2023-05-07T06:44:48;35.95;;;27.08;;
37527;SDS011;23372;52.050;4.810;2023-05-07T06:47:13;32.55;;;26.23;;
37527;SDS011;23372;52.050;4.810;2023-05-07T06:49:39;38.72;;;27.38;;
37527;SDS011;23372;52.050;4.810;2023-05-07T06:52:04;35.53;;;26.35;;
37527;SDS011;23372;52.050;4.810;2023-05-07T06:54:30;36.70;;;27.63;;
37527;SDS011;23372;52.050;4.810;2023-05-07T06:56:56;38.63;;;27.83;;
37527;SDS011;23372;52.050;4.810;2023-05-07T06:59:21;38.28;;;28.08;;
37527;SDS011;23372;52.050;4.810;2023-05-07T07:01:47;36.47;;;27.02;;
37527;SDS011;23372;52.050;4.810;2023-05-07T07:04:12;35.72;;;27.55;;
37527;SDS011;23372;52.050;4.810;2023-05-07T07:06:38;32.80;;;27.92;;
37527;SDS011;23372;52.050;4.810;2023-05-07T07:09:03;34.92;;;28.58;;
37527;SDS011;23372;52.050;4.810;2023-05-07T07:11:29;35.67;;;27.60;;
37527;SDS011;23372;52.050;4.810;2023-05-07T07:13:55;36.47;;;29.42;;
37527;SDS011;23372;52.050;4.810;2023-05-07T07:16:21;36.60;;;28.08;;
37527;SDS011;23372;52.050;4.810;2023-05-07T07:18:47;35.35;;;28.13;;
37527;SDS011;23372;52.050;4.810;2023-05-07T07:21:12;37.95;;;29.23;;
37527;SDS011;23372;52.050;4.810;2023-05-07T07:23:38;35.38;;;29.48;;
37527;SDS011;23372;52.050;4.810;2023-05-07T07:26:03;35.47;;;29.05;;
37527;SDS011;23372;52.050;4.810;2023-05-07T07:28:30;38.13;;;28.73;;
37527;SDS011;23372;52.050;4.810;2023-05-07T07:30:56;37.78;;;28.90;;
37527;SDS011;23372;52.050;4.810;2023-05-07T07:33:23;38.85;;;29.80;;
37527;SDS011;23372;52.050;4.810;2023-05-07T07:35:48;39.08;;;28.48;;
37527;SDS011;23372;52.050;4.810;2023-05-07T07:38:14;40.35;;;29.60;;
37527;SDS011;23372;52.050;4.810;2023-05-07T07:40:40;35.55;;;27.40;;
37527;SDS011;23372;52.050;4.810;2023-05-07T07:43:05;35.20;;;28.17;;
37527;SDS011;23372;52.050;4.810;2023-05-07T07:45:31;40.63;;;29.23;;
37527;SDS011;23372;52.050;4.810;2023-05-07T07:47:57;36.42;;;29.45;;
37527;SDS011;23372;52.050;4.810;2023-05-07T07:50:22;35.55;;;29.00;;
37527;SDS011;23372;52.050;4.810;2023-05-07T07:52:48;37.17;;;29.58;;
37527;SDS011;23372;52.050;4.810;2023-05-07T07:55:13;36.58;;;28.98;;
37527;SDS011;23372;52.050;4.810;2023-05-07T07:57:43;34.30;;;29.13;;
37527;SDS011;23372;52.050;4.810;2023-05-07T08:00:08;39.47;;;29.38;;
37527;SDS011;23372;52.050;4.810;2023-05-07T08:02:34;41.15;;;29.48;;
37527;SDS011;23372;52.050;4.810;2023-05-07T08:05:00;37.80;;;30.83;;
37527;SDS011;23372;52.050;4.810;2023-05-07T08:07:25;32.20;;;26.33;;
37527;SDS011;23372;52.050;4.810;2023-05-07T08:09:51;24.25;;;21.40;;
37527;SDS011;23372;52.050;4.810;2023-05-07T08:12:17;27.15;;;21.23;;
37527;SDS011;23372;52.050;4.810;2023-05-07T08:14:42;22.67;;;19.35;;
37527;SDS011;23372;52.050;4.810;2023-05-07T08:17:08;24.45;;;19.08;;
37527;SDS011;23372;52.050;4.810;2023-05-07T08:19:35;22.58;;;17.90;;
37527;SDS011;23372;52.050;4.810;2023-05-07T08:22:00;19.38;;;16.98;;
37527;SDS011;23372;52.050;4.810;2023-05-07T08:24:27;20.80;;;16.23;;
37527;SDS011;23372;52.050;4.810;2023-05-07T08:26:52;17.65;;;15.13;;
37527;SDS011;23372;52.050;4.810;2023-05-07T08:29:18;17.50;;;14.85;;
37527;SDS011;23372;52.050;4.810;2023-05-07T08:31:43;22.98;;;14.75;;
37527;SDS011;23372;52.050;4.810;2023-05-07T08:34:09;17.25;;;13.10;;
37527;SDS011;23372;52.050;4.810;2023-05-07T08:36:34;19.00;;;14.18;;
37527;SDS011;23372;52.050;4.810;2023-05-07T08:39:00;15.68;;;13.25;;
37527;SDS011;23372;52.050;4.810;2023-05-07T08:41:26;14.80;;;12.68;;
37527;SDS011;23372;52.050;4.810;2023-05-07T08:43:51;17.48;;;14.48;;
37527;SDS011;23372;52.050;4.810;2023-05-07T08:46:19;17.55;;;14.73;;
37527;SDS011;23372;52.050;4.810;2023-05-07T08:48:49;16.85;;;14.90;;
37527;SDS011;23372;52.050;4.810;2023-05-07T08:51:16;22.05;;;16.08;;
37527;SDS011;23372;52.050;4.810;2023-05-07T08:53:45;16.50;;;13.80;;
37527;SDS011;23372;52.050;4.810;2023-05-07T08:56:13;18.75;;;14.18;;
37527;SDS011;23372;52.050;4.810;2023-05-07T08:58:40;16.10;;;14.18;;
37527;SDS011;23372;52.050;4.810;2023-05-07T09:01:07;16.50;;;13.65;;
37527;SDS011;23372;52.050;4.810;2023-05-07T09:03:45;15.32;;;12.32;;
37527;SDS011;23372;52.050;4.810;2023-05-07T09:06:11;14.77;;;12.20;;
37527;SDS011;23372;52.050;4.810;2023-05-07T09:08:37;15.55;;;12.38;;
37527;SDS011;23372;52.050;4.810;2023-05-07T09:11:03;16.55;;;12.80;;
37527;SDS011;23372;52.050;4.810;2023-05-07T09:13:29;19.23;;;13.32;;
37527;SDS011;23372;52.050;4.810;2023-05-07T09:15:55;16.63;;;13.18;;
37527;SDS011;23372;52.050;4.810;2023-05-07T09:18:20;15.70;;;13.82;;
37527;SDS011;23372;52.050;4.810;2023-05-07T09:20:46;15.90;;;13.43;;
37527;SDS011;23372;52.050;4.810;2023-05-07T09:23:12;15.07;;;12.50;;
37527;SDS011;23372;52.050;4.810;2023-05-07T09:25:37;18.92;;;11.23;;
37527;SDS011;23372;52.050;4.810;2023-05-07T09:28:03;15.00;;;10.60;;
37527;SDS011;23372;52.050;4.810;2023-05-07T09:30:32;14.10;;;10.70;;
37527;SDS011;23372;52.050;4.810;2023-05-07T09:32:58;14.32;;;10.70;;
37527;SDS011;23372;52.050;4.810;2023-05-07T09:35:25;14.65;;;10.25;;
37527;SDS011;23372;52.050;4.810;2023-05-07T09:37:58;12.95;;;10.93;;
37527;SDS011;23372;52.050;4.810;2023-05-07T09:40:25;12.88;;;11.15;;
37527;SDS011;23372;52.050;4.810;2023-05-07T09:42:53;15.25;;;11.45;;
37527;SDS011;23372;52.050;4.810;2023-05-07T09:45:22;16.35;;;10.60;;
37527;SDS011;23372;52.050;4.810;2023-05-07T09:47:55;13.75;;;12.02;;
37527;SDS011;23372;52.050;4.810;2023-05-07T09:50:26;15.00;;;10.10;;
37527;SDS011;23372;52.050;4.810;2023-05-07T09:52:54;15.68;;;10.70;;
37527;SDS011;23372;52.050;4.810;2023-05-07T09:55:20;13.82;;;11.23;;
37527;SDS011;23372;52.050;4.810;2023-05-07T09:57:48;14.30;;;10.70;;
37527;SDS011;23372;52.050;4.810;2023-05-07T10:00:15;16.63;;;11.32;;
37527;SDS011;23372;52.050;4.810;2023-05-07T10:02:44;13.52;;;11.13;;
37527;SDS011;23372;52.050;4.810;2023-05-07T10:05:14;14.93;;;11.30;;
37527;SDS011;23372;52.050;4.810;2023-05-07T10:07:40;13.85;;;9.77;;
37527;SDS011;23372;52.050;4.810;2023-05-07T10:10:06;13.45;;;9.95;;
37527;SDS011;23372;52.050;4.810;2023-05-07T10:12:32;9.98;;;6.53;;
37527;SDS011;23372;52.050;4.810;2023-05-07T10:15:07;17.63;;;7.90;;
37527;SDS011;23372;52.050;4.810;2023-05-07T10:17:35;10.68;;;5.90;;
37527;SDS011;23372;52.050;4.810;2023-05-07T10:20:01;12.15;;;6.60;;
37527;SDS011;23372;52.050;4.810;2023-05-07T10:22:28;12.52;;;6.53;;
37527;SDS011;23372;52.050;4.810;2023-05-07T10:25:03;9.88;;;6.57;;
37527;SDS011;23372;52.050;4.810;2023-05-07T10:27:33;11.85;;;7.57;;
37527;SDS011;23372;52.050;4.810;2023-05-07T10:32:39;13.45;;;8.73;;
37527;SDS011;23372;52.050;4.810;2023-05-07T10:35:06;11.45;;;7.57;;
37527;SDS011;23372;52.050;4.810;2023-05-07T10:37:39;13.30;;;7.63;;
37527;SDS011;23372;52.050;4.810;2023-05-07T10:40:05;11.20;;;6.55;;
37527;SDS011;23372;52.050;4.810;2023-05-07T10:42:32;8.65;;;6.25;;
37527;SDS011;23372;52.050;4.810;2023-05-07T10:44:57;10.77;;;6.88;;
37527;SDS011;23372;52.050;4.810;2023-05-07T10:47:36;14.07;;;9.30;;
37527;SDS011;23372;52.050;4.810;2023-05-07T10:50:21;12.75;;;9.38;;
37527;SDS011;23372;52.050;4.810;2023-05-07T10:53:00;19.02;;;9.73;;
37527;SDS011;23372;52.050;4.810;2023-05-07T10:55:41;14.35;;;9.02;;
37527;SDS011;23372;52.050;4.810;2023-05-07T10:58:26;14.90;;;8.30;;
37527;SDS011;23372;52.050;4.810;2023-05-07T11:00:56;12.23;;;8.10;;
37527;SDS011;23372;52.050;4.810;2023-05-07T11:03:23;15.00;;;9.40;;
37527;SDS011;23372;52.050;4.810;2023-05-07T11:14:09;12.05;;;8.52;;
37527;SDS011;23372;52.050;4.810;2023-05-07T11:16:35;13.23;;;7.65;;
37527;SDS011;23372;52.050;4.810;2023-05-07T11:19:03;12.95;;;8.30;;
37527;SDS011;23372;52.050;4.810;2023-05-07T11:21:35;14.98;;;8.55;;
37527;SDS011;23372;52.050;4.810;2023-05-07T11:24:02;12.98;;;7.80;;
37527;SDS011;23372;52.050;4.810;2023-05-07T11:26:30;12.73;;;8.20;;
37527;SDS011;23372;52.050;4.810;2023-05-07T11:29:10;11.93;;;7.50;;
37527;SDS011;23372;52.050;4.810;2023-05-07T11:31:50;10.68;;;6.13;;
37527;SDS011;23372;52.050;4.810;2023-05-07T11:34:20;9.05;;;6.18;;
37527;SDS011;23372;52.050;4.810;2023-05-07T11:36:47;10.13;;;6.05;;
37527;SDS011;23372;52.050;4.810;2023-05-07T11:39:32;9.23;;;5.50;;
37527;SDS011;23372;52.050;4.810;2023-05-07T11:41:59;9.50;;;5.50;;
37527;SDS011;23372;52.050;4.810;2023-05-07T11:44:25;8.55;;;6.00;;
37527;SDS011;23372;52.050;4.810;2023-05-07T11:47:03;11.40;;;6.22;;
37527;SDS011;23372;52.050;4.810;2023-05-07T11:49:29;9.98;;;6.50;;
37527;SDS011;23372;52.050;4.810;2023-05-07T11:51:55;7.85;;;5.90;;
37527;SDS011;23372;52.050;4.810;2023-05-07T11:54:21;8.43;;;5.90;;
37527;SDS011;23372;52.050;4.810;2023-05-07T11:56:47;8.90;;;5.75;;
37527;SDS011;23372;52.050;4.810;2023-05-07T11:59:16;10.73;;;6.07;;
37527;SDS011;23372;52.050;4.810;2023-05-07T12:01:44;13.70;;;6.15;;
37527;SDS011;23372;52.050;4.810;2023-05-07T12:04:11;9.75;;;6.40;;
37527;SDS011;23372;52.050;4.810;2023-05-07T12:06:37;8.18;;;5.72;;
37527;SDS011;23372;52.050;4.810;2023-05-07T12:09:03;10.15;;;6.38;;
37527;SDS011;23372;52.050;4.810;2023-05-07T12:11:30;8.20;;;6.47;;
37527;SDS011;23372;52.050;4.810;2023-05-07T12:13:55;11.45;;;7.55;;
37527;SDS011;23372;52.050;4.810;2023-05-07T12:16:21;9.40;;;7.60;;
37527;SDS011;23372;52.050;4.810;2023-05-07T12:18:47;13.57;;;8.85;;
37527;SDS011;23372;52.050;4.810;2023-05-07T12:21:13;14.13;;;9.52;;
37527;SDS011;23372;52.050;4.810;2023-05-07T12:23:39;11.63;;;9.10;;
37527;SDS011;23372;52.050;4.810;2023-05-07T12:26:05;14.77;;;9.77;;
37527;SDS011;23372;52.050;4.810;2023-05-07T12:28:31;12.82;;;9.88;;
37527;SDS011;23372;52.050;4.810;2023-05-07T12:31:00;14.68;;;11.05;;
37527;SDS011;23372;52.050;4.810;2023-05-07T12:33:26;14.05;;;11.40;;
37527;SDS011;23372;52.050;4.810;2023-05-07T12:35:54;13.15;;;11.77;;
37527;SDS011;23372;52.050;4.810;2023-05-07T12:38:21;14.27;;;11.70;;
37527;SDS011;23372;52.050;4.810;2023-05-07T12:40:48;14.27;;;10.95;;
37527;SDS011;23372;52.050;4.810;2023-05-07T12:43:19;13.00;;;10.85;;
37527;SDS011;23372;52.050;4.810;2023-05-07T12:45:49;16.90;;;11.82;;
37527;SDS011;23372;52.050;4.810;2023-05-07T12:48:15;14.15;;;10.30;;
37527;SDS011;23372;52.050;4.810;2023-05-07T12:50:41;14.50;;;11.55;;
37527;SDS011;23372;52.050;4.810;2023-05-07T12:53:08;14.05;;;11.10;;
37527;SDS011;23372;52.050;4.810;2023-05-07T12:55:40;14.38;;;12.00;;
37527;SDS011;23372;52.050;4.810;2023-05-07T13:00:56;18.25;;;11.98;;
37527;SDS011;23372;52.050;4.810;2023-05-07T13:03:29;14.40;;;11.80;;
37527;SDS011;23372;52.050;4.810;2023-05-07T13:06:06;14.57;;;12.20;;
37527;SDS011;23372;52.050;4.810;2023-05-07T13:08:37;13.52;;;11.32;;
37527;SDS011;23372;52.050;4.810;2023-05-07T13:11:10;16.35;;;11.15;;
37527;SDS011;23372;52.050;4.810;2023-05-07T13:13:37;15.70;;;11.02;;
37527;SDS011;23372;52.050;4.810;2023-05-07T13:16:05;12.10;;;10.50;;
37527;SDS011;23372;52.050;4.810;2023-05-07T13:18:32;13.32;;;10.45;;
37527;SDS011;23372;52.050;4.810;2023-05-07T13:20:59;13.15;;;10.13;;
37527;SDS011;23372;52.050;4.810;2023-05-07T13:23:25;12.02;;;9.80;;
37527;SDS011;23372;52.050;4.810;2023-05-07T13:25:51;14.57;;;10.48;;
37527;SDS011;23372;52.050;4.810;2023-05-07T13:28:20;12.63;;;10.00;;
37527;SDS011;23372;52.050;4.810;2023-05-07T13:30:47;14.48;;;10.32;;
37527;SDS011;23372;52.050;4.810;2023-05-07T13:33:13;13.27;;;10.65;;
37527;SDS011;23372;52.050;4.810;2023-05-07T13:35:39;12.10;;;10.27;;
37527;SDS011;23372;52.050;4.810;2023-05-07T13:38:04;14.90;;;10.55;;
37527;SDS011;23372;52.050;4.810;2023-05-07T13:40:30;13.48;;;11.00;;
37527;SDS011;23372;52.050;4.810;2023-05-07T13:42:57;17.25;;;11.90;;
37527;SDS011;23372;52.050;4.810;2023-05-07T13:45:23;14.40;;;11.75;;
37527;SDS011;23372;52.050;4.810;2023-05-07T13:47:50;8.10;;;4.63;;
37527;SDS011;23372;52.050;4.810;2023-05-07T13:50:16;5.70;;;4.65;;
37527;SDS011;23372;52.050;4.810;2023-05-07T13:52:45;7.90;;;5.57;;
37527;SDS011;23372;52.050;4.810;2023-05-07T13:55:15;8.65;;;6.15;;
37527;SDS011;23372;52.050;4.810;2023-05-07T13:57:42;10.02;;;5.40;;
37527;SDS011;23372;52.050;4.810;2023-05-07T14:00:08;5.50;;;3.42;;
37527;SDS011;23372;52.050;4.810;2023-05-07T14:02:34;5.32;;;3.35;;
37527;SDS011;23372;52.050;4.810;2023-05-07T14:05:00;5.95;;;4.38;;
37527;SDS011;23372;52.050;4.810;2023-05-07T14:07:25;3.97;;;3.05;;
37527;SDS011;23372;52.050;4.810;2023-05-07T14:09:51;6.85;;;3.72;;
37527;SDS011;23372;52.050;4.810;2023-05-07T14:12:17;7.70;;;5.20;;
37527;SDS011;23372;52.050;4.810;2023-05-07T14:14:42;8.60;;;6.80;;
37527;SDS011;23372;52.050;4.810;2023-05-07T14:17:08;11.25;;;8.07;;
37527;SDS011;23372;52.050;4.810;2023-05-07T14:19:33;11.50;;;7.22;;
37527;SDS011;23372;52.050;4.810;2023-05-07T14:21:59;13.38;;;8.23;;
37527;SDS011;23372;52.050;4.810;2023-05-07T14:24:24;10.32;;;5.85;;
37527;SDS011;23372;52.050;4.810;2023-05-07T14:26:50;11.85;;;6.75;;
37527;SDS011;23372;52.050;4.810;2023-05-07T14:29:16;10.00;;;5.82;;
37527;SDS011;23372;52.050;4.810;2023-05-07T14:31:44;11.52;;;6.30;;
37527;SDS011;23372;52.050;4.810;2023-05-07T14:34:10;20.85;;;7.22;;
37527;SDS011;23372;52.050;4.810;2023-05-07T14:36:35;8.13;;;6.05;;